Time;durP1;ratioP1;P1;durP2;ratioP2;P2;SDS_P1;SDS_P2;PMS_P1;PMS_P2;Temp;Humidity;BMP_temperature;BMP_pressure;BME280_temperature;BME280_humidity;BME280_pressure;Samples;Min_cycle;Max_cycle;Signal;HPM_P1;HPM_P2
2021/11/11 00:00:59;;;;;;;55.47;37.47;;;;;;;9.37;89.46;102228.63;6212040;28;20200;-62
2021/11/11 00:04:21;;;;;;;61.23;37.13;;;;;;;9.30;90.27;102229.34;6211908;28;20236;-61
2021/11/11 00:07:41;;;;;;;68.77;38.00;;;;;;;9.37;89.10;102226.88;6215819;28;20232;-63
2021/11/11 00:11:02;;;;;;;52.43;36.67;;;;;;;9.21;89.37;102215.34;6218183;28;20209;-62
2021/11/11 00:14:23;;;;;;;52.17;35.63;;;;;;;9.56;88.34;102207.28;6195561;28;20431;-63
2021/11/11 00:17:47;;;;;;;55.53;37.93;;;;;;;9.40;88.70;102215.66;6218778;28;20324;-63
2021/11/11 00:21:08;;;;;;;55.73;38.47;;;;;;;9.23;90.64;102208.44;6219082;28;20212;-62
2021/11/11 00:24:29;;;;;;;58.30;39.43;;;;;;;9.05;91.43;102213.25;6218865;28;20229;-61
2021/11/11 00:27:50;;;;;;;68.20;42.03;;;;;;;8.71;92.04;102217.78;6218383;28;20228;-62
2021/11/11 00:31:11;;;;;;;72.97;46.87;;;;;;;8.90;91.69;102218.16;6221438;28;20582;-61
2021/11/11 00:34:34;;;;;;;62.07;39.57;;;;;;;9.12;91.81;102204.75;6220617;28;20209;-63
2021/11/11 00:37:57;;;;;;;69.90;42.33;;;;;;;9.55;89.19;102199.47;6219079;28;20229;-62
2021/11/11 00:41:18;;;;;;;69.53;41.27;;;;;;;9.29;89.67;102202.47;6216333;28;20201;-63
2021/11/11 00:44:40;;;;;;;81.33;48.10;;;;;;;9.36;90.41;102198.25;6220547;28;20239;-63
2021/11/11 00:48:01;;;;;;;71.50;42.63;;;;;;;9.11;91.46;102203.03;6218893;28;20232;-62
2021/11/11 00:51:24;;;;;;;68.60;41.37;;;;;;;9.61;89.61;102205.63;6220010;28;20208;-62
2021/11/11 00:54:49;;;;;;;70.67;44.67;;;;;;;9.67;88.04;102204.84;6225582;28;20209;-62
2021/11/11 00:58:33;;;;;;;60.90;40.17;;;;;;;10.14;86.79;102216.88;6224940;28;20233;-60
2021/11/11 01:01:55;;;;;;;57.67;40.07;;;;;;;10.24;85.88;102206.63;6224355;28;20229;-63
2021/11/11 01:05:16;;;;;;;65.40;41.47;;;;;;;10.17;85.25;102211.72;6227091;28;20233;-62
2021/11/11 01:08:39;;;;;;;63.73;41.63;;;;;;;9.96;86.31;102217.47;6224617;28;20233;-61
2021/11/11 01:12:00;;;;;;;71.57;43.43;;;;;;;10.17;85.60;102217.78;6224922;28;20622;-63
2021/11/11 01:15:24;;;;;;;61.33;39.03;;;;;;;10.13;86.57;102220.34;6227637;28;20206;-61
2021/11/11 01:18:45;;;;;;;64.20;40.57;;;;;;;10.01;87.16;102216.69;6224316;28;20254;-63
2021/11/11 01:22:07;;;;;;;73.03;44.53;;;;;;;10.07;86.62;102217.66;6228591;28;20233;-62
2021/11/11 01:25:33;;;;;;;65.80;38.27;;;;;;;10.20;85.83;102217.00;6241459;28;20345;-62
2021/11/11 01:28:56;;;;;;;60.03;37.73;;;;;;;10.36;85.66;102218.97;6224529;28;20228;-62
2021/11/11 01:32:17;;;;;;;52.93;38.43;;;;;;;10.35;85.00;102234.56;6226536;28;20241;-61
2021/11/11 01:35:38;;;;;;;70.33;41.90;;;;;;;10.22;85.25;102226.56;6224022;28;20324;-62
2021/11/11 01:39:03;;;;;;;58.07;37.07;;;;;;;10.19;85.33;102225.63;6223559;28;20626;-63
2021/11/11 01:42:49;;;;;;;45.37;33.97;;;;;;;9.76;86.09;102218.03;6223873;28;20626;-61
2021/11/11 01:46:10;;;;;;;44.50;35.70;;;;;;;9.89;86.85;102213.91;6226668;28;20693;-63
2021/11/11 01:49:31;;;;;;;52.10;36.00;;;;;;;10.15;85.16;102213.44;6222705;28;20233;-62
2021/11/11 01:52:54;;;;;;;47.60;34.97;;;;;;;10.22;84.95;102210.94;6223172;28;20625;-62
2021/11/11 01:56:15;;;;;;;47.40;35.83;;;;;;;10.08;85.60;102207.28;6222982;28;20697;-62
2021/11/11 01:59:38;;;;;;;48.70;34.53;;;;;;;10.32;84.53;102195.50;6248924;28;20216;-61
2021/11/11 02:03:04;;;;;;;37.07;30.33;;;;;;;10.40;84.52;102194.72;6236061;28;20237;-62
2021/11/11 02:06:49;;;;;;;40.03;32.97;;;;;;;9.91;86.01;102204.41;6225141;28;20524;-60
2021/11/11 02:10:16;;;;;;;41.07;30.70;;;;;;;10.05;85.92;102205.47;6220019;28;20526;-62
2021/11/11 02:13:41;;;;;;;39.70;29.43;;;;;;;9.87;86.22;102197.41;6235160;28;20232;-62
2021/11/11 02:17:12;;;;;;;39.07;30.87;;;;;;;9.97;85.31;102199.28;6225478;28;20257;-62
2021/11/11 02:20:45;;;;;;;42.47;30.90;;;;;;;10.01;84.81;102195.00;6225973;28;20458;-63
2021/11/11 02:24:12;;;;;;;32.70;25.77;;;;;;;9.64;86.08;102187.47;6220859;28;20232;-62
2021/11/11 02:27:41;;;;;;;30.57;26.37;;;;;;;10.07;84.97;102195.09;6224130;28;21142;-62
2021/11/11 02:31:03;;;;;;;28.43;25.33;;;;;;;10.11;84.93;102196.88;6234729;28;20208;-62
2021/11/11 02:34:30;;;;;;;31.77;27.00;;;;;;;10.25;84.94;102199.69;6217314;28;20225;-63
2021/11/11 02:37:55;;;;;;;29.33;25.97;;;;;;;10.34;83.89;102197.25;6219442;28;20237;-62
2021/11/11 02:41:25;;;;;;;34.23;29.23;;;;;;;10.03;84.98;102201.97;6224299;28;20240;-62
2021/11/11 02:44:47;;;;;;;31.97;27.10;;;;;;;10.13;85.43;102194.31;6217971;28;20739;-62
2021/11/11 02:48:18;;;;;;;34.67;30.67;;;;;;;10.29;85.05;102185.84;6222761;28;20240;-62
2021/11/11 02:51:43;;;;;;;35.90;28.80;;;;;;;10.68;82.83;102184.66;6215172;28;20236;-63
2021/11/11 02:55:08;;;;;;;37.87;30.90;;;;;;;10.77;81.99;102195.19;6222427;28;20581;-63
2021/11/11 02:58:29;;;;;;;30.13;26.67;;;;;;;10.91;81.40;102191.88;6226097;28;20637;-62
2021/11/11 03:01:53;;;;;;;36.80;30.00;;;;;;;10.95;81.53;102198.88;6235519;28;20232;-61
2021/11/11 03:05:18;;;;;;;33.83;28.83;;;;;;;11.08;79.98;102195.56;6222896;28;20209;-61
2021/11/11 03:08:38;;;;;;;34.97;29.73;;;;;;;11.11;79.49;102189.50;6222448;28;20240;-62
2021/11/11 03:12:03;;;;;;;37.73;31.60;;;;;;;10.42;83.74;102190.41;6232753;28;20232;-62
2021/11/11 03:15:27;;;;;;;39.50;32.23;;;;;;;10.48;83.04;102175.72;6225259;28;20205;-62
2021/11/11 03:18:48;;;;;;;44.50;32.17;;;;;;;9.93;86.04;102176.66;6218894;28;20236;-62
2021/11/11 03:22:12;;;;;;;39.87;33.17;;;;;;;10.33;83.89;102174.69;6222397;28;20232;-62
2021/11/11 03:25:36;;;;;;;45.30;32.47;;;;;;;10.14;84.49;102167.41;6220484;28;20304;-62
2021/11/11 03:28:59;;;;;;;44.83;32.37;;;;;;;9.57;88.17;102167.41;6218625;28;20228;-62
2021/11/11 03:32:29;;;;;;;44.10;32.60;;;;;;;9.85;86.80;102175.69;6224657;28;20346;-63
2021/11/11 03:35:53;;;;;;;47.67;31.00;;;;;;;9.99;86.59;102171.56;6221300;28;20303;-62
2021/11/11 03:39:14;;;;;;;47.63;34.10;;;;;;;9.77;87.27;102166.84;6215113;28;20232;-62
2021/11/11 03:42:36;;;;;;;43.23;33.67;;;;;;;10.07;86.03;102166.47;6220404;28;20224;-62
2021/11/11 03:45:58;;;;;;;41.20;33.03;;;;;;;9.95;86.76;102174.09;6221687;28;20493;-61
2021/11/11 03:49:21;;;;;;;50.17;34.07;;;;;;;10.08;86.54;102180.34;6227907;28;20217;-62
2021/11/11 03:52:43;;;;;;;42.20;31.57;;;;;;;10.29;85.73;102172.84;6219480;28;20224;-62
2021/11/11 03:56:05;;;;;;;47.47;33.40;;;;;;;10.21;85.26;102171.84;6216898;28;20300;-62
2021/11/11 03:59:29;;;;;;;44.27;32.80;;;;;;;10.29;85.85;102164.16;6205700;28;20229;-63
2021/11/11 04:02:51;;;;;;;42.07;31.47;;;;;;;10.66;83.64;102165.53;6218141;28;20264;-63
2021/11/11 04:06:14;;;;;;;42.67;32.63;;;;;;;10.07;85.01;102178.59;6218868;28;20943;-62
2021/11/11 04:09:35;;;;;;;42.10;33.03;;;;;;;10.29;84.87;102169.38;6217210;28;20221;-62
2021/11/11 04:12:56;;;;;;;43.33;32.83;;;;;;;9.81;86.99;102166.94;6217522;28;20236;-62
2021/11/11 04:16:17;;;;;;;47.63;35.93;;;;;;;9.84;87.18;102168.72;6224671;28;20197;-62
2021/11/11 04:19:39;;;;;;;51.17;35.23;;;;;;;9.82;87.49;102165.22;6216106;28;20225;-63
2021/11/11 04:23:00;;;;;;;50.80;34.87;;;;;;;9.62;89.01;102164.91;6218197;28;20504;-63
2021/11/11 04:26:26;;;;;;;52.90;36.37;;;;;;;9.91;88.17;102160.16;6221764;28;20774;-62
2021/11/11 04:30:01;;;;;;;51.20;39.73;;;;;;;10.16;86.96;102168.34;6222300;28;20201;-61
2021/11/11 04:33:24;;;;;;;52.23;36.70;;;;;;;10.20;85.44;102164.91;6221882;28;20232;-62
2021/11/11 04:37:07;;;;;;;55.70;39.77;;;;;;;10.13;85.58;102160.47;6219507;28;20240;-62
2021/11/11 04:40:50;;;;;;;56.37;38.20;;;;;;;9.56;87.82;102163.06;6222465;28;20217;-62
2021/11/11 04:44:22;;;;;;;56.87;39.47;;;;;;;10.11;86.83;102167.38;6220940;28;20509;-62
2021/11/11 04:47:56;;;;;;;58.67;41.03;;;;;;;10.03;85.86;102168.13;6223177;28;20232;-63
2021/11/11 05:02:37;;;;;;;63.00;40.53;;;;;;;9.77;87.37;102159.06;6222936;28;20233;-62
2021/11/11 05:05:59;;;;;;;54.13;38.43;;;;;;;9.54;88.85;102162.19;6237437;28;20213;-62
2021/11/11 05:09:21;;;;;;;64.07;42.60;;;;;;;9.61;88.59;102161.41;6226023;28;20221;-62
2021/11/11 05:12:44;;;;;;;58.03;39.00;;;;;;;9.46;89.45;102166.38;6226923;28;20893;-62
2021/11/11 05:16:06;;;;;;;58.80;38.10;;;;;;;9.64;88.37;102168.41;6239684;28;20291;-62
2021/11/11 05:19:27;;;;;;;58.97;40.63;;;;;;;9.88;88.41;102177.44;6216778;28;20229;-62
2021/11/11 05:22:50;;;;;;;57.83;40.60;;;;;;;9.87;87.69;102176.59;6229213;28;20232;-62
2021/11/11 05:26:12;;;;;;;53.47;39.53;;;;;;;9.59;88.82;102170.91;6225241;28;20504;-62
2021/11/11 05:29:35;;;;;;;52.43;38.40;;;;;;;9.76;88.11;102168.59;6230279;28;20217;-62
2021/11/11 05:32:57;;;;;;;51.90;38.70;;;;;;;9.78;87.61;102166.03;6227330;28;20233;-63
2021/11/11 05:36:22;;;;;;;50.33;38.43;;;;;;;9.87;88.05;102166.19;6224602;28;20209;-62
2021/11/11 05:39:43;;;;;;;49.13;36.83;;;;;;;9.72;87.94;102155.53;6235545;28;20217;-62
2021/11/11 05:43:05;;;;;;;48.97;35.37;;;;;;;9.46;89.14;102150.78;6230477;28;20232;-62
2021/11/11 05:46:28;;;;;;;45.63;35.97;;;;;;;9.60;88.73;102156.22;6225083;28;20221;-63
2021/11/11 05:49:50;;;;;;;44.03;36.77;;;;;;;9.58;88.49;102153.56;6225869;28;20216;-63
2021/11/11 05:53:11;;;;;;;48.63;37.03;;;;;;;9.54;88.89;102154.38;6225912;28;20232;-63
2021/11/11 05:56:34;;;;;;;42.77;35.30;;;;;;;9.98;87.39;102156.81;6222794;28;20213;-63
2021/11/11 05:59:55;;;;;;;50.67;37.33;;;;;;;9.79;88.25;102167.75;6223013;28;20640;-62
2021/11/11 06:03:17;;;;;;;45.67;36.20;;;;;;;9.86;87.39;102167.00;6217319;28;20267;-61
2021/11/11 06:06:43;;;;;;;53.67;39.93;;;;;;;10.04;86.43;102169.91;6225857;28;20240;-62
2021/11/11 06:10:06;;;;;;;49.97;38.60;;;;;;;10.06;86.13;102175.09;6218991;28;20212;-62
2021/11/11 06:13:28;;;;;;;41.60;33.57;;;;;;;10.00;86.48;102178.53;6222877;28;20327;-62
2021/11/11 06:16:52;;;;;;;49.33;38.53;;;;;;;9.93;87.57;102179.28;6218495;28;20229;-62
2021/11/11 06:20:19;;;;;;;49.13;35.33;;;;;;;9.71;87.15;102179.78;6231531;28;20225;-63
2021/11/11 06:23:41;;;;;;;44.50;34.67;;;;;;;9.84;86.76;102184.31;6230570;28;21106;-63
2021/11/11 06:27:03;;;;;;;44.80;36.43;;;;;;;9.76;87.89;102178.13;6227302;28;20240;-62
2021/11/11 06:30:24;;;;;;;43.10;34.17;;;;;;;9.71;87.79;102182.38;6223716;28;20213;-63
2021/11/11 06:33:44;;;;;;;44.80;36.03;;;;;;;9.88;87.99;102183.53;6222853;28;20323;-63
2021/11/11 06:37:07;;;;;;;44.63;35.33;;;;;;;10.32;85.90;102191.16;6224241;28;20240;-62
2021/11/11 06:40:30;;;;;;;47.47;36.27;;;;;;;10.19;85.48;102195.25;6219935;28;20574;-64
2021/11/11 06:43:53;;;;;;;46.67;33.77;;;;;;;10.17;86.38;102196.09;6218645;28;21538;-62
2021/11/11 06:47:15;;;;;;;43.00;34.50;;;;;;;10.32;84.77;102196.34;6220112;28;20253;-63
2021/11/11 06:50:37;;;;;;;41.30;33.43;;;;;;;9.97;85.25;102188.88;6218353;28;20296;-63
2021/11/11 06:54:00;;;;;;;41.80;33.63;;;;;;;9.70;87.50;102191.06;6220888;28;20237;-63
2021/11/11 06:57:21;;;;;;;40.50;33.43;;;;;;;9.99;86.65;102181.09;6222139;28;21023;-63
2021/11/11 07:00:47;;;;;;;36.47;31.93;;;;;;;10.13;86.10;102189.09;6235987;28;20305;-63
2021/11/11 07:04:10;;;;;;;43.47;34.57;;;;;;;9.89;86.82;102187.88;6225876;28;20245;-63
2021/11/11 07:07:31;;;;;;;40.63;32.83;;;;;;;9.98;86.84;102190.63;6222082;28;20240;-62
2021/11/11 07:10:55;;;;;;;42.00;33.30;;;;;;;10.01;87.15;102201.06;6219591;28;20213;-62
2021/11/11 07:14:17;;;;;;;42.77;31.10;;;;;;;9.76;87.87;102197.22;6218103;28;20735;-63
2021/11/11 07:17:38;;;;;;;40.97;31.20;;;;;;;10.20;86.33;102204.84;6215568;28;20225;-62
2021/11/11 07:20:59;;;;;;;46.50;32.53;;;;;;;9.96;88.07;102199.25;6216224;28;20512;-63
2021/11/11 07:24:20;;;;;;;44.07;35.37;;;;;;;9.75;89.32;102202.38;6216969;28;20350;-62
2021/11/11 07:27:44;;;;;;;52.23;38.20;;;;;;;9.64;89.56;102200.50;6216083;28;20286;-62
2021/11/11 07:31:05;;;;;;;41.27;34.53;;;;;;;10.04;88.60;102202.84;6214941;28;20212;-62
2021/11/11 07:34:27;;;;;;;55.87;39.10;;;;;;;9.89;88.39;102203.50;6206410;28;20548;-62
2021/11/11 07:37:50;;;;;;;49.37;36.50;;;;;;;9.90;88.68;102197.44;6205118;28;20224;-63
2021/11/11 07:41:11;;;;;;;45.60;35.27;;;;;;;9.77;88.87;102208.47;6213471;28;20292;-62
2021/11/11 07:44:34;;;;;;;50.73;36.57;;;;;;;10.09;88.21;102219.41;6216886;28;20213;-63
2021/11/11 07:47:58;;;;;;;49.97;37.70;;;;;;;10.20;87.65;102207.44;6216013;28;20617;-62
2021/11/11 07:51:19;;;;;;;54.93;37.70;;;;;;;10.24;87.52;102208.38;6218719;28;20212;-61
2021/11/11 07:54:40;;;;;;;54.43;37.73;;;;;;;10.05;87.86;102218.50;6217841;28;20236;-62
2021/11/11 07:58:02;;;;;;;54.07;38.17;;;;;;;9.92;88.27;102221.75;6216055;28;20679;-63
2021/11/11 08:01:24;;;;;;;48.67;36.80;;;;;;;10.32;87.09;102221.53;6218656;28;20208;-63
2021/11/11 08:04:46;;;;;;;51.23;33.63;;;;;;;9.93;87.75;102228.72;6216285;28;20261;-63
2021/11/11 08:08:07;;;;;;;50.83;38.83;;;;;;;10.12;87.04;102226.38;6217390;28;20264;-63
2021/11/11 08:11:28;;;;;;;50.97;37.40;;;;;;;9.89;88.42;102223.41;6218219;28;20214;-63
2021/11/11 08:14:50;;;;;;;50.67;39.73;;;;;;;10.42;85.90;102216.47;6216673;28;20237;-61
2021/11/11 08:18:12;;;;;;;53.90;41.40;;;;;;;10.23;86.69;102217.00;6216750;28;20229;-62
2021/11/11 08:21:34;;;;;;;57.63;41.57;;;;;;;10.36;86.81;102216.38;6218227;28;20205;-63
2021/11/11 08:24:56;;;;;;;55.17;40.63;;;;;;;10.13;86.62;102220.34;6209385;28;20213;-62
2021/11/11 08:28:18;;;;;;;52.43;40.50;;;;;;;10.62;85.42;102213.25;6209078;28;20236;-62
2021/11/11 08:31:40;;;;;;;54.47;41.03;;;;;;;10.24;87.68;102216.19;6212216;28;20213;-63
2021/11/11 08:35:03;;;;;;;55.77;42.50;;;;;;;10.34;86.28;102212.88;6216076;28;20205;-63
2021/11/11 08:38:27;;;;;;;60.23;43.07;;;;;;;10.12;87.23;102211.66;6212582;28;20224;-63
2021/11/11 08:41:49;;;;;;;54.97;42.03;;;;;;;10.05;88.41;102208.06;6212329;28;20229;-63
2021/11/11 08:45:11;;;;;;;56.73;40.87;;;;;;;9.97;88.84;102211.44;6214473;28;20214;-62
2021/11/11 08:48:33;;;;;;;55.90;43.20;;;;;;;10.02;88.27;102217.56;6219839;28;20225;-62
2021/11/11 08:51:55;;;;;;;55.57;41.53;;;;;;;10.06;87.39;102216.75;6215531;28;22134;-62
2021/11/11 08:55:18;;;;;;;54.63;41.40;;;;;;;10.03;87.60;102224.53;6212332;28;20198;-62
2021/11/11 08:58:39;;;;;;;56.20;42.03;;;;;;;10.19;87.87;102220.44;6210610;28;20254;-61
2021/11/11 09:02:01;;;;;;;58.10;43.00;;;;;;;10.14;87.90;102211.66;6213759;28;20788;-63
2021/11/11 09:05:24;;;;;;;57.93;41.83;;;;;;;10.50;86.17;102210.50;6218226;28;20243;-65
2021/11/11 09:08:47;;;;;;;58.97;42.50;;;;;;;10.19;86.99;102216.09;6211941;28;20224;-64
2021/11/11 09:12:09;;;;;;;56.13;45.70;;;;;;;10.80;86.55;102216.09;6215729;28;20233;-62
2021/11/11 09:15:30;;;;;;;55.90;43.57;;;;;;;10.80;84.29;102221.31;6219145;28;20232;-64
2021/11/11 09:18:51;;;;;;;52.17;41.67;;;;;;;10.96;84.73;102217.16;6216051;28;20256;-64
2021/11/11 09:22:12;;;;;;;55.70;40.80;;;;;;;10.69;84.02;102217.69;6216388;28;20237;-63
2021/11/11 09:25:36;;;;;;;51.43;39.37;;;;;;;11.05;83.42;102211.19;6219357;28;20233;-64
2021/11/11 09:28:59;;;;;;;50.73;38.80;;;;;;;10.43;85.99;102209.53;6212750;28;20320;-63
2021/11/11 09:32:20;;;;;;;54.93;40.57;;;;;;;10.59;84.81;102215.81;6212860;28;20252;-63
2021/11/11 09:35:41;;;;;;;45.60;40.53;;;;;;;10.75;84.45;102204.72;6214205;28;20228;-63
2021/11/11 09:39:05;;;;;;;48.63;37.47;;;;;;;10.44;84.53;102211.28;6212347;28;20225;-63
2021/11/11 09:42:28;;;;;;;47.33;40.27;;;;;;;11.08;82.42;102207.72;6216992;28;20232;-64
2021/11/11 09:45:49;;;;;;;43.90;34.33;;;;;;;11.18;82.81;102207.81;6220080;28;21549;-64
2021/11/11 09:49:11;;;;;;;45.50;38.23;;;;;;;11.35;81.64;102208.00;6216084;28;20358;-63
2021/11/11 09:52:32;;;;;;;47.80;37.43;;;;;;;11.15;81.59;102206.94;6223061;28;20226;-63
2021/11/11 09:59:37;;;;;;;47.83;38.17;;;;;;;11.01;82.81;102210.25;6222332;28;20312;-63
2021/11/11 10:02:58;;;;;;;48.47;38.30;;;;;;;10.54;83.60;102204.47;6220660;28;20234;-62
2021/11/11 10:06:24;;;;;;;47.77;39.30;;;;;;;10.89;83.28;102211.84;6214747;28;20217;-64
2021/11/11 10:09:46;;;;;;;50.57;40.93;;;;;;;10.93;82.26;102213.63;6220990;28;20240;-64
2021/11/11 10:13:11;;;;;;;45.37;38.80;;;;;;;10.59;84.17;102211.47;6219516;28;20699;-64
2021/11/11 10:16:37;;;;;;;47.53;37.70;;;;;;;10.90;83.57;102211.00;6220684;28;20486;-62
2021/11/11 10:19:58;;;;;;;43.77;37.87;;;;;;;11.38;80.64;102207.16;6221384;28;20288;-62
2021/11/11 10:23:23;;;;;;;40.77;36.20;;;;;;;11.08;82.30;102208.59;6222706;28;20233;-62
2021/11/11 10:26:52;;;;;;;42.60;35.23;;;;;;;10.90;82.86;102221.44;6221556;28;20236;-61
2021/11/11 10:30:16;;;;;;;44.63;34.80;;;;;;;10.46;84.59;102219.13;6217210;28;20260;-63
2021/11/11 10:33:38;;;;;;;39.80;34.00;;;;;;;11.03;83.56;102210.25;6220243;28;20232;-62
2021/11/11 10:36:59;;;;;;;38.33;34.10;;;;;;;10.90;83.61;102211.88;6220039;28;20230;-62
2021/11/11 10:40:25;;;;;;;42.53;35.63;;;;;;;10.58;85.27;102204.50;6219476;28;20197;-62
2021/11/11 10:43:45;;;;;;;42.57;37.13;;;;;;;10.84;84.51;102199.63;6215631;28;20578;-63
2021/11/11 10:47:11;;;;;;;37.77;31.90;;;;;;;10.64;85.52;102203.72;6214305;28;20232;-62
2021/11/11 10:50:37;;;;;;;40.27;34.10;;;;;;;11.41;82.73;102199.38;6219217;28;20229;-63
2021/11/11 10:54:04;;;;;;;38.90;32.50;;;;;;;11.33;82.02;102198.44;6222681;28;20224;-63
2021/11/11 10:57:33;;;;;;;39.10;33.77;;;;;;;10.99;83.01;102185.03;6221684;28;20621;-63
2021/11/11 11:00:56;;;;;;;38.23;32.23;;;;;;;11.55;81.71;102178.63;6218760;28;20300;-64
2021/11/11 11:04:24;;;;;;;41.50;32.43;;;;;;;11.59;80.63;102186.50;6218469;28;20252;-64
2021/11/11 11:07:47;;;;;;;41.80;32.43;;;;;;;11.34;81.84;102188.00;6221427;28;20261;-63
2021/11/11 11:11:11;;;;;;;37.37;30.37;;;;;;;11.15;82.47;102184.34;6215539;28;20217;-63
2021/11/11 11:14:40;;;;;;;37.93;31.20;;;;;;;11.11;83.14;102190.38;6216729;28;20311;-63
2021/11/11 11:18:01;;;;;;;33.57;29.93;;;;;;;10.90;83.63;102200.56;6215075;28;20232;-63
2021/11/11 11:21:25;;;;;;;34.83;29.40;;;;;;;10.68;85.27;102192.47;6216207;28;20864;-63
2021/11/11 11:24:47;;;;;;;32.77;29.00;;;;;;;10.82;84.47;102193.53;6214827;28;20200;-63
2021/11/11 11:28:25;;;;;;;33.87;30.17;;;;;;;10.83;83.77;102192.66;6211458;28;20220;-63
2021/11/11 11:31:50;;;;;;;34.57;30.47;;;;;;;11.14;83.25;102184.31;6214615;28;20720;-66
2021/11/11 11:35:13;;;;;;;33.60;28.70;;;;;;;11.30;82.73;102180.13;6214805;28;20197;-62
2021/11/11 11:38:38;;;;;;;34.87;30.93;;;;;;;11.04;83.22;102175.53;6215496;28;20677;-63
2021/11/11 11:42:05;;;;;;;33.80;30.17;;;;;;;10.86;83.75;102175.31;6213395;28;20228;-64
2021/11/11 11:45:26;;;;;;;35.83;30.20;;;;;;;10.84;84.23;102170.97;6214557;28;20397;-64
2021/11/11 11:48:48;;;;;;;33.50;29.70;;;;;;;11.09;83.61;102179.06;6215590;28;20564;-64
2021/11/11 11:52:13;;;;;;;33.17;28.50;;;;;;;10.50;85.52;102179.22;6207200;28;20241;-63
2021/11/11 11:55:40;;;;;;;33.23;27.13;;;;;;;10.75;84.76;102170.84;6218551;28;21190;-63
2021/11/11 11:59:05;;;;;;;32.57;29.10;;;;;;;10.91;84.04;102171.03;6215508;28;20574;-63
2021/11/11 12:02:35;;;;;;;30.27;27.17;;;;;;;10.91;83.69;102176.25;6214297;28;20232;-63
2021/11/11 12:09:55;;;;;;;35.17;31.43;;;;;;;10.56;86.27;102171.50;6201277;28;20229;-63
2021/11/11 12:13:41;;;;;;;35.97;30.70;;;;;;;10.92;85.13;102170.19;6218009;28;20802;-64
2021/11/11 12:17:40;;;;;;;37.03;33.10;;;;;;;11.02;84.10;102178.13;6213926;28;20566;-64
2021/11/11 12:40:18;;;;;;;35.10;31.40;;;;;;;11.05;86.23;102174.69;6219843;28;20209;-63
2021/11/11 12:43:39;;;;;;;34.07;30.57;;;;;;;10.74;87.03;102171.72;6217379;28;20229;-64
2021/11/11 12:47:01;;;;;;;39.57;31.70;;;;;;;10.61;86.64;102169.81;6222088;28;20285;-63
2021/11/11 12:50:34;;;;;;;37.90;33.30;;;;;;;10.80;86.41;102179.63;6225356;28;20224;-64
2021/11/11 12:53:56;;;;;;;37.17;33.33;;;;;;;10.51;87.51;102176.66;6226112;28;20237;-63
2021/11/11 12:57:19;;;;;;;39.03;34.87;;;;;;;10.64;87.05;102172.44;6216380;28;20235;-63
2021/11/11 13:00:43;;;;;;;37.00;33.10;;;;;;;10.82;85.62;102164.88;6213014;28;20237;-63
2021/11/11 13:04:13;;;;;;;35.53;31.87;;;;;;;11.01;84.80;102163.34;6217990;28;20232;-62
2021/11/11 13:07:36;;;;;;;37.33;33.23;;;;;;;10.53;86.48;102169.72;6217616;28;20228;-63
2021/11/11 13:11:00;;;;;;;34.13;30.73;;;;;;;11.01;85.22;102159.84;6218025;28;20229;-64
2021/11/11 13:14:24;;;;;;;36.70;32.97;;;;;;;10.73;85.77;102169.09;6218758;28;20228;-64
2021/11/11 13:17:48;;;;;;;34.40;30.93;;;;;;;10.65;86.42;102163.78;6214969;28;20245;-64
2021/11/11 13:21:11;;;;;;;34.83;30.93;;;;;;;10.93;85.38;102164.09;6216718;28;20217;-63
2021/11/11 13:24:46;;;;;;;36.27;32.37;;;;;;;11.10;85.29;102159.94;6220403;28;20221;-62
2021/11/11 13:53:56;;;;;;;37.03;29.37;;;;;;;10.69;86.60;102165.56;6218017;28;20320;-63
2021/11/11 13:58:59;;;;;;;33.13;29.23;;;;;;;10.69;88.76;102173.41;6219534;28;20233;-62
2021/11/11 15:17:26;;;;;;;32.07;29.23;;;;;;;10.68;89.57;102202.91;6206621;28;20232;-61
2021/11/11 15:44:26;;;;;;;31.47;28.13;;;;;;;10.52;91.09;102208.78;6214468;28;20194;-61
2021/11/11 16:01:35;;;;;;;30.87;27.67;;;;;;;10.78;88.16;102210.00;6206456;28;20615;-65
2021/11/11 16:19:49;;;;;;;33.03;29.70;;;;;;;10.76;88.79;102216.03;6213716;28;20257;-62
2021/11/11 16:23:19;;;;;;;30.83;27.73;;;;;;;10.30;89.93;102211.09;6217483;28;20213;-64
2021/11/11 16:26:41;;;;;;;30.73;27.67;;;;;;;10.53;89.89;102215.75;6211211;28;20204;-64
2021/11/11 16:30:07;;;;;;;29.27;26.37;;;;;;;10.56;89.15;102216.63;6232541;28;20193;-63
2021/11/11 16:33:29;;;;;;;32.20;28.90;;;;;;;10.67;88.77;102223.75;6220449;28;20236;-64
2021/11/11 16:36:50;;;;;;;29.97;27.03;;;;;;;10.51;90.00;102223.53;6201522;28;20494;-65
2021/11/11 16:40:15;;;;;;;32.73;29.57;;;;;;;10.49;89.81;102221.75;6227851;28;20468;-63
2021/11/11 16:43:37;;;;;;;30.70;27.33;;;;;;;10.46;89.50;102224.31;6223504;28;20324;-63
2021/11/11 16:46:59;;;;;;;29.20;26.50;;;;;;;10.91;88.35;102220.56;6223011;28;20257;-63
2021/11/11 16:50:23;;;;;;;28.80;25.90;;;;;;;10.57;87.62;102222.75;6224168;28;20213;-62
2021/11/11 16:53:45;;;;;;;34.57;30.93;;;;;;;10.37;90.83;102215.53;6231640;28;20260;-63
2021/11/11 16:57:06;;;;;;;34.60;30.90;;;;;;;10.44;90.36;102222.56;6226988;28;20237;-63
2021/11/11 17:00:27;;;;;;;36.03;32.33;;;;;;;10.52;89.42;102233.09;6240650;28;20220;-63
2021/11/11 17:03:49;;;;;;;36.90;32.67;;;;;;;10.77;88.30;102231.69;6215657;28;20380;-62
2021/11/11 17:07:11;;;;;;;35.87;31.53;;;;;;;10.75;88.07;102232.53;6214638;28;20335;-63
2021/11/11 17:10:32;;;;;;;37.73;33.67;;;;;;;10.51;89.35;102235.69;6214156;28;21404;-63
2021/11/11 17:13:53;;;;;;;37.20;33.27;;;;;;;10.37;89.11;102244.19;6213426;28;20233;-63
2021/11/11 17:17:14;;;;;;;37.07;32.47;;;;;;;10.73;88.68;102250.75;6213994;28;20229;-62
2021/11/11 17:20:35;;;;;;;43.20;36.43;;;;;;;10.77;88.14;102247.31;6213968;28;20217;-63
2021/11/11 17:24:00;;;;;;;38.03;34.23;;;;;;;10.61;88.58;102258.41;6214273;28;20224;-63
2021/11/11 17:27:29;;;;;;;35.17;31.47;;;;;;;10.78;88.38;102258.63;6213155;28;20228;-63
2021/11/11 17:30:53;;;;;;;39.23;35.13;;;;;;;10.94;87.14;102264.91;6220623;28;20240;-62
2021/11/11 17:34:14;;;;;;;39.47;35.07;;;;;;;10.79;87.80;102266.44;6221003;28;20229;-63
2021/11/11 17:37:35;;;;;;;36.87;32.87;;;;;;;10.61;88.18;102261.00;6222594;28;20232;-62
2021/11/11 17:40:58;;;;;;;38.43;33.17;;;;;;;10.79;88.25;102276.88;6219633;28;20213;-63
2021/11/11 17:44:20;;;;;;;40.97;35.90;;;;;;;10.56;88.66;102270.47;6216595;28;20236;-62
2021/11/11 17:47:41;;;;;;;41.30;35.90;;;;;;;10.58;88.45;102263.56;6218368;28;20783;-63
2021/11/11 17:51:09;;;;;;;39.13;33.33;;;;;;;10.95;87.98;102258.81;6216526;28;20250;-63
2021/11/11 17:54:32;;;;;;;42.77;34.87;;;;;;;10.84;87.29;102256.97;6214402;28;20228;-62
2021/11/11 17:57:58;;;;;;;40.00;35.17;;;;;;;10.96;86.63;102260.59;6217567;28;20237;-61
2021/11/11 18:01:22;;;;;;;44.27;37.33;;;;;;;10.82;87.42;102256.06;6216059;28;20224;-63
2021/11/11 18:04:50;;;;;;;41.00;36.37;;;;;;;10.94;86.99;102260.56;6211664;28;20617;-62
2021/11/11 18:08:17;;;;;;;41.53;37.07;;;;;;;10.62;88.21;102260.13;6229185;28;20322;-63
2021/11/11 18:11:41;;;;;;;44.37;38.83;;;;;;;10.49;89.19;102255.59;6236624;28;20228;-62
2021/11/11 18:15:08;;;;;;;44.50;39.53;;;;;;;10.76;88.21;102258.63;6215175;28;20283;-63
2021/11/11 18:18:29;;;;;;;42.47;35.50;;;;;;;10.56;88.21;102263.53;6211775;28;20813;-63
2021/11/11 18:21:51;;;;;;;42.77;35.77;;;;;;;10.82;87.76;102263.91;6215069;28;20228;-62
2021/11/11 18:25:14;;;;;;;39.47;35.17;;;;;;;10.52;89.21;102260.88;6216646;28;20240;-63
2021/11/11 18:28:42;;;;;;;45.50;39.87;;;;;;;10.80;87.15;102268.22;6212313;28;20228;-63
2021/11/11 18:32:07;;;;;;;50.33;41.87;;;;;;;10.51;89.11;102264.34;6210363;28;20274;-62
2021/11/11 18:35:39;;;;;;;47.10;37.60;;;;;;;10.67;88.14;102260.22;6219627;28;20228;-62
2021/11/11 18:39:01;;;;;;;44.50;39.70;;;;;;;10.80;87.95;102260.41;6210721;28;20221;-63
2021/11/11 18:42:22;;;;;;;40.97;36.57;;;;;;;11.15;85.76;102272.13;6215333;28;20236;-63